createdAt,value
2023-01-06T16:33:49.875Z,9.38
2023-01-06T16:36:35.178Z,9.39
2023-01-06T16:39:20.622Z,9.44
2023-01-06T16:42:39.308Z,9.48
2023-01-06T16:45:35.252Z,9.51
2023-01-06T16:48:20.489Z,9.51
2023-01-06T16:51:12.697Z,9.54
2023-01-06T16:53:57.925Z,9.61
2023-01-06T16:56:43.428Z,9.65
2023-01-06T16:59:34.937Z,9.67
2023-01-06T17:02:20.717Z,9.68
2023-01-06T17:05:17.301Z,9.69
2023-01-06T17:08:09.339Z,9.71
2023-01-06T17:10:55.233Z,9.74
2023-01-06T17:13:46.102Z,9.76
2023-01-06T17:16:35.173Z,9.79
2023-01-06T17:19:26.561Z,9.81
2023-01-06T17:22:31.726Z,9.86
2023-01-06T17:25:17.357Z,9.89
2023-01-06T17:28:17.285Z,9.91
2023-01-06T17:31:02.431Z,9.94
2023-01-06T17:33:53.371Z,9.96
2023-01-06T17:36:40.475Z,9.95
2023-01-06T17:39:28.629Z,9.95
2023-01-06T17:42:14.014Z,9.92
2023-01-06T17:45:00.245Z,9.87
2023-01-06T17:47:49.390Z,9.81
2023-01-06T17:50:35.725Z,9.77
2023-01-06T17:53:52.443Z,9.75
2023-01-06T17:56:37.541Z,9.73
2023-01-06T17:59:22.877Z,9.73
2023-01-06T18:02:34.736Z,9.71
2023-01-06T18:05:26.076Z,9.73
2023-01-06T18:08:16.543Z,9.73
2023-01-06T18:11:10.634Z,9.72
2023-01-06T18:14:01.610Z,9.74
2023-01-06T18:16:49.594Z,9.73
2023-01-06T18:19:37.478Z,9.73
2023-01-06T18:22:23.967Z,9.72
2023-01-06T18:25:18.781Z,9.69
2023-01-06T18:28:15.445Z,9.67
2023-01-06T18:31:03.502Z,9.67
2023-01-06T18:33:51.945Z,9.63
2023-01-06T18:36:37.339Z,9.60
2023-01-06T18:39:26.247Z,9.56
2023-01-06T18:42:24.928Z,9.50
2023-01-06T18:45:22.123Z,9.49
2023-01-06T18:48:22.639Z,9.47
2023-01-06T18:51:23.176Z,9.46
2023-01-06T18:54:26.831Z,9.44
2023-01-06T18:57:27.491Z,9.44
2023-01-06T19:00:36.124Z,9.42
2023-01-06T19:03:31.788Z,9.39
